createdAt,value
2022-10-25T00:01:58.196Z,1.13
2022-10-25T00:06:00.286Z,1.05
2022-10-25T00:10:02.303Z,0.75
2022-10-25T00:14:06.690Z,0.77
2022-10-25T00:18:08.674Z,0.60
2022-10-25T00:22:10.679Z,0.77
2022-10-25T00:26:13.258Z,0.70
2022-10-25T00:30:15.613Z,0.60
2022-10-25T00:34:17.643Z,0.75
2022-10-25T00:38:19.718Z,1.08
2022-10-25T00:42:26.876Z,1.02
2022-10-25T00:46:31.677Z,1.38
2022-10-25T00:50:50.576Z,1.10
2022-10-25T00:54:54.442Z,1.27
2022-10-25T00:59:00.505Z,1.20
2022-10-25T01:03:03.848Z,1.20
2022-10-25T01:07:05.969Z,1.30
2022-10-25T01:11:08.574Z,1.60
2022-10-25T01:15:11.509Z,1.23
2022-10-25T01:19:51.191Z,1.52
2022-10-25T01:24:11.839Z,1.33
2022-10-25T01:28:23.689Z,1.50
2022-10-25T01:32:37.990Z,1.15
2022-10-25T01:36:49.615Z,1.15
2022-10-25T01:41:15.513Z,1.08
2022-10-25T01:45:29.966Z,1.52
2022-10-25T01:49:41.353Z,1.30
2022-10-25T01:53:45.329Z,1.30
2022-10-25T01:57:56.000Z,1.40
2022-10-25T02:02:03.236Z,1.65
2022-10-25T02:06:36.134Z,1.30
2022-10-25T02:10:48.207Z,1.30
2022-10-25T02:15:07.809Z,1.63
2022-10-25T02:19:15.074Z,1.08
2022-10-25T02:27:23.137Z,1.42
2022-10-25T02:31:26.464Z,1.30
2022-10-25T02:35:28.516Z,1.35
2022-10-25T02:39:31.596Z,1.33
2022-10-25T02:43:34.193Z,1.50
2022-10-25T02:47:36.240Z,1.40
2022-10-25T02:51:38.281Z,1.15
2022-10-25T02:55:40.292Z,1.23
2022-10-25T02:59:42.280Z,1.55
2022-10-25T03:03:45.177Z,1.90
2022-10-25T03:07:47.163Z,1.50
2022-10-25T03:11:49.238Z,1.75
2022-10-25T03:15:51.409Z,1.35
2022-10-25T03:19:53.448Z,1.40
2022-10-25T03:23:56.134Z,1.73
2022-10-25T03:28:00.403Z,1.60
2022-10-25T03:32:03.593Z,1.90
2022-10-25T03:36:06.013Z,1.90
2022-10-25T03:40:08.538Z,2.15
2022-10-25T03:44:10.541Z,1.95
2022-10-25T03:48:12.588Z,1.70
2022-10-25T03:52:14.587Z,2.25
2022-10-25T03:56:16.609Z,2.33
2022-10-25T04:00:18.786Z,1.58
2022-10-25T04:04:21.149Z,1.63
2022-10-25T04:08:23.151Z,1.80
2022-10-25T04:12:25.245Z,1.92
2022-10-25T04:16:27.321Z,2.08
2022-10-25T04:20:29.394Z,1.65
2022-10-25T04:24:31.470Z,1.83
2022-10-25T04:28:33.498Z,1.80
2022-10-25T04:32:35.504Z,1.60
2022-10-25T04:36:39.010Z,1.80
2022-10-25T04:40:41.001Z,1.80
2022-10-25T04:44:43.038Z,1.73
2022-10-25T04:48:45.050Z,1.80
2022-10-25T04:52:47.411Z,2.03
2022-10-25T04:56:49.782Z,1.80
2022-10-25T05:00:52.290Z,2.13
2022-10-25T05:04:54.284Z,1.70
2022-10-25T05:08:56.379Z,1.83
2022-10-25T05:12:58.402Z,1.70
2022-10-25T05:17:00.550Z,1.48
2022-10-25T05:21:05.430Z,1.33
2022-10-25T05:25:07.740Z,1.88
2022-10-25T05:29:13.657Z,1.10
2022-10-25T05:33:15.703Z,1.10
2022-10-25T05:37:17.787Z,0.90
2022-10-25T05:41:19.797Z,0.90
2022-10-25T05:45:21.813Z,1.10
2022-10-25T05:49:23.859Z,1.20
2022-10-25T05:53:25.851Z,0.98
2022-10-25T05:57:27.844Z,1.23
2022-10-25T06:01:29.929Z,1.13
2022-10-25T06:05:32.780Z,1.02
2022-10-25T06:09:34.784Z,1.08
2022-10-25T06:13:38.108Z,0.90
2022-10-25T06:17:40.131Z,1.50
2022-10-25T06:21:42.168Z,1.35
2022-10-25T06:25:44.206Z,1.40
2022-10-25T06:29:46.266Z,1.70
2022-10-25T06:33:48.270Z,1.40
2022-10-25T06:37:50.252Z,1.40
2022-10-25T06:41:52.219Z,1.40
2022-10-25T06:45:54.526Z,1.45
2022-10-25T06:49:56.608Z,1.27
2022-10-25T06:54:07.852Z,1.20
2022-10-25T06:58:09.844Z,1.40
2022-10-25T07:02:11.985Z,1.95
2022-10-25T07:06:17.548Z,1.02
2022-10-25T07:10:19.643Z,1.13
2022-10-25T07:14:21.652Z,1.10
2022-10-25T07:18:23.698Z,1.40
2022-10-25T07:22:25.828Z,1.20
2022-10-25T07:26:31.220Z,1.45
2022-10-25T07:30:33.372Z,1.67
2022-10-25T07:34:35.638Z,1.45
2022-10-25T07:38:37.849Z,1.30
2022-10-25T07:42:39.833Z,1.10
2022-10-25T07:46:44.847Z,1.00
2022-10-25T07:50:47.295Z,0.70
2022-10-25T07:54:49.397Z,1.23
2022-10-25T07:58:52.220Z,1.30
2022-10-25T08:02:54.346Z,1.13
2022-10-25T08:06:59.402Z,1.15
2022-10-25T08:11:04.210Z,1.17
2022-10-25T08:15:06.704Z,1.15
2022-10-25T08:19:08.695Z,1.55
2022-10-25T08:23:10.730Z,1.33
2022-10-25T08:27:12.730Z,1.38
2022-10-25T08:31:14.792Z,1.65
2022-10-25T08:35:16.835Z,1.45
2022-10-25T08:39:18.835Z,1.60
2022-10-25T08:43:52.150Z,0.88
2022-10-25T08:47:56.560Z,0.80
2022-10-25T08:52:00.382Z,0.73
2022-10-25T08:56:16.007Z,0.70
2022-10-25T09:00:22.432Z,1.05
2022-10-25T09:04:24.785Z,0.52
2022-10-25T09:08:48.195Z,0.68
2022-10-25T09:13:10.953Z,0.70
2022-10-25T09:17:19.547Z,0.65
2022-10-25T09:21:42.629Z,1.13
2022-10-25T09:26:03.959Z,1.25
2022-10-25T09:30:12.357Z,1.20
2022-10-25T09:34:17.373Z,1.00
2022-10-25T09:38:23.840Z,0.90
2022-10-25T09:42:41.192Z,1.37
2022-10-25T09:46:48.848Z,0.90
2022-10-25T09:50:58.681Z,0.93
2022-10-25T09:55:26.350Z,0.63
2022-10-25T09:59:28.403Z,0.60
2022-10-25T10:03:36.344Z,0.50
2022-10-25T10:07:38.763Z,0.80
2022-10-25T10:11:41.100Z,0.70
2022-10-25T10:15:51.198Z,0.77
2022-10-25T10:20:19.720Z,0.50
2022-10-25T10:24:34.684Z,0.85
2022-10-25T10:28:37.196Z,0.90
2022-10-25T10:36:45.221Z,0.82
2022-10-25T10:40:50.791Z,1.20
2022-10-25T10:45:08.885Z,0.70
2022-10-25T10:49:11.000Z,0.60
2022-10-25T10:53:22.182Z,0.70
2022-10-25T10:57:32.489Z,0.80
2022-10-25T11:01:34.681Z,0.70
2022-10-25T11:05:37.957Z,0.75
2022-10-25T11:09:40.005Z,0.60
2022-10-25T11:14:00.760Z,0.70
2022-10-25T11:18:06.026Z,0.70
2022-10-25T11:22:21.959Z,1.38
2022-10-25T11:26:49.929Z,0.60
2022-10-25T11:35:29.752Z,0.80
2022-10-25T11:39:36.953Z,1.02
2022-10-25T11:48:20.813Z,1.00
2022-10-25T11:52:34.872Z,0.63
2022-10-25T11:56:56.802Z,0.70
2022-10-25T12:01:12.999Z,1.13
2022-10-25T12:05:25.353Z,1.05
2022-10-25T12:09:30.141Z,2.80
2022-10-25T12:13:42.504Z,1.23
2022-10-25T12:17:44.715Z,0.60
2022-10-25T12:22:01.779Z,0.60
2022-10-25T12:30:18.324Z,0.68
2022-10-25T12:34:32.605Z,0.70
2022-10-25T12:38:39.452Z,0.50
2022-10-25T12:42:49.518Z,0.95
2022-10-25T12:47:17.149Z,0.60
2022-10-25T12:51:31.651Z,1.25
2022-10-25T12:56:01.364Z,0.73
2022-10-25T13:04:47.081Z,0.80
2022-10-25T13:08:49.837Z,0.65
2022-10-25T13:13:06.679Z,0.82
2022-10-25T13:17:18.113Z,0.50
2022-10-25T13:21:53.287Z,0.68
2022-10-25T13:25:55.497Z,0.65
2022-10-25T13:30:02.381Z,0.65
2022-10-25T13:34:13.627Z,0.60
2022-10-25T13:38:39.109Z,0.55
2022-10-25T13:42:43.846Z,0.50
2022-10-25T13:46:46.568Z,0.40
2022-10-25T13:51:12.311Z,0.60
2022-10-25T13:55:15.644Z,0.40
2022-10-25T13:59:45.679Z,0.50
2022-10-25T14:04:05.883Z,0.65
2022-10-25T14:08:21.557Z,0.65
2022-10-25T14:12:26.202Z,0.57
2022-10-25T14:16:34.574Z,0.80
2022-10-25T14:20:37.903Z,0.60
2022-10-25T14:24:42.273Z,0.65
2022-10-25T14:28:44.302Z,0.50
2022-10-25T14:32:52.079Z,0.60
2022-10-25T14:36:56.605Z,0.73
2022-10-25T14:41:01.204Z,1.08
2022-10-25T14:45:03.422Z,0.77
2022-10-25T14:49:09.574Z,1.30
2022-10-25T14:53:16.857Z,0.95
2022-10-25T15:01:26.530Z,0.90
2022-10-25T15:05:28.708Z,1.13
2022-10-25T15:09:46.674Z,0.90
2022-10-25T15:13:51.273Z,1.70
2022-10-25T15:17:53.379Z,1.40
2022-10-25T15:22:14.665Z,0.90
2022-10-25T15:26:36.967Z,0.93
2022-10-25T15:30:59.987Z,0.68
2022-10-25T15:35:02.599Z,0.82
2022-10-25T15:39:24.958Z,1.13
2022-10-25T15:43:26.952Z,1.05
2022-10-25T15:47:32.756Z,1.40
2022-10-25T15:51:38.292Z,1.35
2022-10-25T15:55:40.298Z,0.88
2022-10-25T15:59:42.290Z,1.00
2022-10-25T16:03:44.303Z,0.85
2022-10-25T16:07:46.361Z,0.90
2022-10-25T16:11:54.185Z,1.35
2022-10-25T16:15:56.406Z,1.50
2022-10-25T16:19:58.426Z,1.25
2022-10-25T16:24:00.427Z,1.27
2022-10-25T16:28:02.872Z,1.40
2022-10-25T16:32:05.374Z,1.67
2022-10-25T16:36:09.164Z,1.58
2022-10-25T16:40:15.314Z,3.15
2022-10-25T16:44:19.130Z,5.72
2022-10-25T16:48:23.203Z,6.80
2022-10-25T16:52:25.351Z,5.88
2022-10-25T16:56:27.394Z,3.28
2022-10-25T17:00:35.705Z,2.50
2022-10-25T17:04:37.766Z,2.22
2022-10-25T17:08:39.791Z,2.28
2022-10-25T17:12:50.324Z,2.50
2022-10-25T17:16:52.567Z,2.30
2022-10-25T17:20:54.640Z,2.15
2022-10-25T17:24:56.626Z,2.40
2022-10-25T17:29:00.768Z,2.22
2022-10-25T17:33:03.364Z,3.35
2022-10-25T17:37:05.346Z,4.20
2022-10-25T17:41:07.938Z,4.28
2022-10-25T17:45:10.428Z,4.65
2022-10-25T17:49:12.485Z,4.43
2022-10-25T17:53:14.504Z,4.28
2022-10-25T17:57:16.604Z,4.50
2022-10-25T18:01:21.816Z,4.35
2022-10-25T18:05:24.053Z,3.60
2022-10-25T18:09:26.073Z,8.98
2022-10-25T18:13:29.134Z,5.53
2022-10-25T18:17:31.304Z,4.85
2022-10-25T18:21:34.080Z,4.90
2022-10-25T18:25:36.286Z,4.60
2022-10-25T18:29:38.308Z,4.38
2022-10-25T18:33:42.586Z,5.50
2022-10-25T18:37:44.586Z,7.35
2022-10-25T18:41:48.291Z,3.97
2022-10-25T18:45:55.259Z,3.75
2022-10-25T18:49:57.252Z,3.08
2022-10-25T18:54:01.025Z,3.00
2022-10-25T18:58:03.030Z,2.70
2022-10-25T19:02:06.322Z,3.72
2022-10-25T19:06:09.548Z,5.95
2022-10-25T19:10:11.598Z,6.60
2022-10-25T19:14:39.134Z,7.55
2022-10-25T19:18:41.179Z,10.55
2022-10-25T19:22:43.342Z,9.13
2022-10-25T19:26:45.423Z,29.08
2022-10-25T19:30:47.582Z,14.98
2022-10-25T19:38:56.961Z,9.38
2022-10-25T19:42:59.019Z,8.27
2022-10-25T19:47:01.046Z,7.03
2022-10-25T19:51:04.849Z,7.35
2022-10-25T19:55:07.195Z,6.75
2022-10-25T19:59:11.175Z,6.35
2022-10-25T20:03:13.220Z,6.13
2022-10-25T20:07:15.292Z,7.80
2022-10-25T20:11:18.399Z,14.27
2022-10-25T20:15:20.433Z,16.52
2022-10-25T20:19:22.503Z,19.40
2022-10-25T20:23:24.640Z,19.48
2022-10-25T20:27:26.616Z,11.15
2022-10-25T20:31:30.665Z,9.07
2022-10-25T20:35:39.898Z,21.13
2022-10-25T20:39:42.432Z,13.10
2022-10-25T20:43:52.487Z,12.70
2022-10-25T20:47:56.109Z,11.35
2022-10-25T20:51:58.161Z,11.35
2022-10-25T20:56:00.321Z,11.05
2022-10-25T21:00:02.655Z,9.18
2022-10-25T21:04:04.975Z,7.60
2022-10-25T21:08:07.188Z,8.68
2022-10-25T21:12:09.199Z,7.60
2022-10-25T21:16:13.553Z,6.00
2022-10-25T21:20:15.765Z,9.95
2022-10-25T21:24:17.783Z,4.78
2022-10-25T21:28:19.840Z,3.90
2022-10-25T21:32:21.863Z,2.97
2022-10-25T21:36:25.290Z,1.77
2022-10-25T21:40:27.494Z,2.95
2022-10-25T21:44:29.495Z,4.30
2022-10-25T21:48:31.635Z,5.20
2022-10-25T21:52:33.771Z,4.65
2022-10-25T21:56:35.937Z,3.42
2022-10-25T22:00:41.974Z,2.70
2022-10-25T22:04:44.046Z,2.97
2022-10-25T22:08:46.592Z,3.35
2022-10-25T22:12:48.839Z,7.00
2022-10-25T22:16:51.204Z,4.72
2022-10-25T22:20:59.040Z,5.45
2022-10-25T22:25:01.031Z,5.88
2022-10-25T22:29:03.274Z,16.45
2022-10-25T22:33:05.396Z,12.93
2022-10-25T22:37:07.557Z,17.63
2022-10-25T22:41:11.700Z,9.85
2022-10-25T22:45:13.809Z,5.15
2022-10-25T22:49:16.270Z,7.70
2022-10-25T22:53:18.991Z,4.60
2022-10-25T22:57:21.374Z,5.78
2022-10-25T23:01:35.821Z,2.00
2022-10-25T23:05:37.902Z,6.18
2022-10-25T23:09:39.930Z,2.00
2022-10-25T23:13:42.387Z,2.35
2022-10-25T23:21:46.433Z,1.80
2022-10-25T23:25:48.589Z,1.73
2022-10-25T23:29:50.598Z,1.85
2022-10-25T23:33:54.534Z,1.65
2022-10-25T23:37:56.712Z,1.90
2022-10-25T23:41:58.760Z,1.60
2022-10-25T23:46:01.291Z,1.95
2022-10-25T23:50:03.487Z,1.58
2022-10-25T23:54:09.379Z,1.70
2022-10-25T23:58:11.414Z,1.60
